CheckWX is a tool to help pilots better visualize weather data.  It is not intended as a substitute for an official pre-flight weather briefing.

00:30:03 UTC

KOJC METAR
Johnson County Executive Airport
Olathe, Kansas, USA
Current

37 mins ago

KOJC 162353Z 16005KT 4SM HZ CLR 29/22 A3003 RMK AO2 SLP156 T02940222 10322 20294 56005
Observed
Sep-16 @ 23:53 UTC
Wind
  • 160° at 5 KTS
Visibility
4 SM
Flight Rules
MVFR
Conditions
Haze
Cloud Levels
  • Clear skies
Temperature
29°C / 84°F
Dewpoint
22°C / 72°F
Heat Index
32°C / 89°F
Humidity
66%
Altimeter
30.03" Hg
Pressure
1016.92 hPa
Previous

2 hours ago

KOJC 162253Z 18004KT 10SM CLR 31/22 A3003 RMK AO2 SLP156 T03060217
Observed
Sep-16 @ 22:53 UTC
Wind
  • 180° at 4 KTS
Visibility
10 SM
Flight Rules
VFR
Cloud Levels
  • Clear skies
Temperature
31°C / 88°F
Dewpoint
22°C / 72°F
Heat Index
35°C / 95°F
Humidity
59%
Altimeter
30.03" Hg
Pressure
1016.92 hPa
Previous

3 hours ago

KOJC 162153Z 21008KT 10SM FEW046 32/21 A3003 RMK AO2 SLP156 T03170211
Observed
Sep-16 @ 21:53 UTC
Wind
  • 210° at 8 KTS
Visibility
10 SM
Flight Rules
VFR
Cloud Levels
  • Few at 4,600' AGL
Temperature
32°C / 90°F
Dewpoint
21°C / 70°F
Heat Index
36°C / 96°F
Humidity
52%
Altimeter
30.03" Hg
Pressure
1016.92 hPa